Bennington, Vermont
Current Conditions -  °F | °C
As of 6:54 PM on Tuesday 25 Nov 2014 (Local Time) from KDDH Reporting Station
Clear Clear  
Wind Chill: 30°   Ceiling: Unl
Heat Index: 34°   Visibility: 10mi
Dew Point: 25°   Wind: 5mph
Humidity: 70%   Direction: 200°SSW
Pressure: 30"   Gusts: NA
Location:  42.88°N, 73.2°W
Report Text: KDDH 252354Z AUTO 20004KT 10SM CLR 01/M04 A3000 RMK AO2 SLP163 T00111039 10106 20006 51018
Loading
Personal Weather Stations






























Interactive Weather Map New forecast layout! Learn more

10-Day Weather Forecast

Advertisements
Track Severe Weather on mobile